sensor_id;sensor_type;location;lat;lon;timestamp;temperature;humidity
24226;DHT22;51462;51.422;5.514;2024-03-17T00:02:18;6.40;99.90
24226;DHT22;51462;51.422;5.514;2024-03-17T00:04:45;6.40;99.90
24226;DHT22;51462;51.422;5.514;2024-03-17T00:07:11;6.50;99.90
24226;DHT22;51462;51.422;5.514;2024-03-17T00:09:37;6.40;99.90
24226;DHT22;51462;51.422;5.514;2024-03-17T00:12:03;6.40;99.90
24226;DHT22;51462;51.422;5.514;2024-03-17T00:14:28;6.30;99.90
24226;DHT22;51462;51.422;5.514;2024-03-17T00:16:54;6.40;99.90
24226;DHT22;51462;51.422;5.514;2024-03-17T00:19:20;6.50;99.90
24226;DHT22;51462;51.422;5.514;2024-03-17T00:21:48;6.50;99.90
24226;DHT22;51462;51.422;5.514;2024-03-17T00:24:16;6.60;99.90
24226;DHT22;51462;51.422;5.514;2024-03-17T00:26:42;6.60;99.90
24226;DHT22;51462;51.422;5.514;2024-03-17T00:29:07;6.70;99.90
24226;DHT22;51462;51.422;5.514;2024-03-17T00:31:33;6.70;99.90
24226;DHT22;51462;51.422;5.514;2024-03-17T00:33:58;6.70;99.90
24226;DHT22;51462;51.422;5.514;2024-03-17T00:36:24;6.60;99.90
24226;DHT22;51462;51.422;5.514;2024-03-17T00:38:50;6.50;99.90
24226;DHT22;51462;51.422;5.514;2024-03-17T00:41:17;6.50;99.90
24226;DHT22;51462;51.422;5.514;2024-03-17T00:43:43;6.60;99.90
24226;DHT22;51462;51.422;5.514;2024-03-17T00:46:08;6.50;99.90
24226;DHT22;51462;51.422;5.514;2024-03-17T00:48:34;6.50;99.90
24226;DHT22;51462;51.422;5.514;2024-03-17T00:50:59;6.40;99.90
24226;DHT22;51462;51.422;5.514;2024-03-17T00:53:25;6.40;99.90
24226;DHT22;51462;51.422;5.514;2024-03-17T00:55:54;6.40;99.90
24226;DHT22;51462;51.422;5.514;2024-03-17T00:58:23;6.40;99.90
24226;DHT22;51462;51.422;5.514;2024-03-17T01:00:48;6.50;99.90
24226;DHT22;51462;51.422;5.514;2024-03-17T01:03:15;6.50;99.90
24226;DHT22;51462;51.422;5.514;2024-03-17T01:05:41;6.40;99.90
24226;DHT22;51462;51.422;5.514;2024-03-17T01:08:09;6.40;99.90
24226;DHT22;51462;51.422;5.514;2024-03-17T01:10:40;6.40;99.90
24226;DHT22;51462;51.422;5.514;2024-03-17T01:13:06;6.50;99.90
24226;DHT22;51462;51.422;5.514;2024-03-17T01:15:34;6.50;99.90
24226;DHT22;51462;51.422;5.514;2024-03-17T01:17:59;6.50;99.90
24226;DHT22;51462;51.422;5.514;2024-03-17T01:20:26;6.50;99.90
24226;DHT22;51462;51.422;5.514;2024-03-17T01:22:51;6.40;99.90
24226;DHT22;51462;51.422;5.514;2024-03-17T01:25:17;6.30;99.90
24226;DHT22;51462;51.422;5.514;2024-03-17T01:27:42;6.30;99.90
24226;DHT22;51462;51.422;5.514;2024-03-17T01:30:11;6.30;99.90
24226;DHT22;51462;51.422;5.514;2024-03-17T01:32:37;6.20;99.90
24226;DHT22;51462;51.422;5.514;2024-03-17T01:35:03;6.20;99.90
24226;DHT22;51462;51.422;5.514;2024-03-17T01:37:29;6.20;99.90
24226;DHT22;51462;51.422;5.514;2024-03-17T01:40:00;6.10;99.90
24226;DHT22;51462;51.422;5.514;2024-03-17T01:42:26;6.10;99.90
24226;DHT22;51462;51.422;5.514;2024-03-17T01:44:52;6.10;99.90
24226;DHT22;51462;51.422;5.514;2024-03-17T01:47:20;6.00;99.90
24226;DHT22;51462;51.422;5.514;2024-03-17T01:49:49;6.00;99.90
24226;DHT22;51462;51.422;5.514;2024-03-17T01:52:16;6.00;99.90
24226;DHT22;51462;51.422;5.514;2024-03-17T01:54:42;6.00;99.90
24226;DHT22;51462;51.422;5.514;2024-03-17T01:57:09;5.90;99.90
24226;DHT22;51462;51.422;5.514;2024-03-17T01:59:35;6.00;99.90
24226;DHT22;51462;51.422;5.514;2024-03-17T02:02:01;6.00;99.90
24226;DHT22;51462;51.422;5.514;2024-03-17T02:04:28;6.00;99.90
24226;DHT22;51462;51.422;5.514;2024-03-17T02:06:53;6.00;99.90
24226;DHT22;51462;51.422;5.514;2024-03-17T02:09:19;6.00;99.90
24226;DHT22;51462;51.422;5.514;2024-03-17T02:11:47;6.00;99.90
24226;DHT22;51462;51.422;5.514;2024-03-17T02:14:13;6.00;99.90
24226;DHT22;51462;51.422;5.514;2024-03-17T02:16:40;6.00;99.90
24226;DHT22;51462;51.422;5.514;2024-03-17T02:19:06;6.00;99.90
24226;DHT22;51462;51.422;5.514;2024-03-17T02:21:31;6.00;99.90
24226;DHT22;51462;51.422;5.514;2024-03-17T02:23:57;6.10;99.90
24226;DHT22;51462;51.422;5.514;2024-03-17T02:26:25;6.20;99.90
24226;DHT22;51462;51.422;5.514;2024-03-17T02:28:50;6.20;99.90
24226;DHT22;51462;51.422;5.514;2024-03-17T02:31:16;6.20;99.90
24226;DHT22;51462;51.422;5.514;2024-03-17T02:33:43;6.20;99.90
24226;DHT22;51462;51.422;5.514;2024-03-17T02:36:09;6.30;99.90
24226;DHT22;51462;51.422;5.514;2024-03-17T02:38:40;6.50;99.90
24226;DHT22;51462;51.422;5.514;2024-03-17T02:41:25;6.60;99.90
24226;DHT22;51462;51.422;5.514;2024-03-17T02:43:50;6.90;99.90
24226;DHT22;51462;51.422;5.514;2024-03-17T02:46:17;6.90;99.90
24226;DHT22;51462;51.422;5.514;2024-03-17T02:48:45;7.00;99.90
24226;DHT22;51462;51.422;5.514;2024-03-17T02:51:16;6.90;99.90
24226;DHT22;51462;51.422;5.514;2024-03-17T02:53:43;6.80;99.90
24226;DHT22;51462;51.422;5.514;2024-03-17T02:56:10;6.80;99.90
24226;DHT22;51462;51.422;5.514;2024-03-17T02:58:37;6.90;99.90
24226;DHT22;51462;51.422;5.514;2024-03-17T03:01:04;7.00;99.90
24226;DHT22;51462;51.422;5.514;2024-03-17T03:03:30;6.90;99.90
24226;DHT22;51462;51.422;5.514;2024-03-17T03:05:56;7.30;99.90
24226;DHT22;51462;51.422;5.514;2024-03-17T03:08:22;7.60;99.90
24226;DHT22;51462;51.422;5.514;2024-03-17T03:10:48;7.30;99.90
24226;DHT22;51462;51.422;5.514;2024-03-17T03:13:14;7.70;99.90
24226;DHT22;51462;51.422;5.514;2024-03-17T03:15:39;7.70;99.90
24226;DHT22;51462;51.422;5.514;2024-03-17T03:18:05;7.90;99.90
24226;DHT22;51462;51.422;5.514;2024-03-17T03:20:30;7.70;99.90
24226;DHT22;51462;51.422;5.514;2024-03-17T03:22:56;7.60;99.90
24226;DHT22;51462;51.422;5.514;2024-03-17T03:25:22;7.40;99.90
24226;DHT22;51462;51.422;5.514;2024-03-17T03:27:48;7.50;99.90
24226;DHT22;51462;51.422;5.514;2024-03-17T03:30:13;7.50;99.90
24226;DHT22;51462;51.422;5.514;2024-03-17T03:32:41;7.40;99.90
24226;DHT22;51462;51.422;5.514;2024-03-17T03:35:07;7.40;99.90
24226;DHT22;51462;51.422;5.514;2024-03-17T03:37:33;7.60;99.90
24226;DHT22;51462;51.422;5.514;2024-03-17T03:39:59;7.70;99.90
24226;DHT22;51462;51.422;5.514;2024-03-17T03:42:24;7.90;99.90
24226;DHT22;51462;51.422;5.514;2024-03-17T03:44:50;8.10;99.90
24226;DHT22;51462;51.422;5.514;2024-03-17T03:47:16;8.20;99.90
24226;DHT22;51462;51.422;5.514;2024-03-17T03:49:41;8.30;99.90
24226;DHT22;51462;51.422;5.514;2024-03-17T03:52:07;8.10;99.90
24226;DHT22;51462;51.422;5.514;2024-03-17T03:54:33;8.10;99.90
24226;DHT22;51462;51.422;5.514;2024-03-17T03:56:59;8.40;99.90
24226;DHT22;51462;51.422;5.514;2024-03-17T03:59:25;8.50;99.90
24226;DHT22;51462;51.422;5.514;2024-03-17T04:01:50;8.40;99.90
24226;DHT22;51462;51.422;5.514;2024-03-17T04:04:16;8.40;99.90
24226;DHT22;51462;51.422;5.514;2024-03-17T04:06:41;8.50;99.90
24226;DHT22;51462;51.422;5.514;2024-03-17T04:09:07;8.60;99.90
24226;DHT22;51462;51.422;5.514;2024-03-17T04:11:34;8.70;99.90
24226;DHT22;51462;51.422;5.514;2024-03-17T04:14:00;8.70;99.90
24226;DHT22;51462;51.422;5.514;2024-03-17T04:16:26;8.60;99.90
24226;DHT22;51462;51.422;5.514;2024-03-17T04:18:52;8.60;99.90
24226;DHT22;51462;51.422;5.514;2024-03-17T04:21:18;8.60;99.90
24226;DHT22;51462;51.422;5.514;2024-03-17T04:23:43;8.60;99.90
24226;DHT22;51462;51.422;5.514;2024-03-17T04:26:09;8.50;99.90
24226;DHT22;51462;51.422;5.514;2024-03-17T04:28:34;8.50;99.90
24226;DHT22;51462;51.422;5.514;2024-03-17T04:31:05;8.60;99.90
24226;DHT22;51462;51.422;5.514;2024-03-17T04:33:31;8.30;99.90
24226;DHT22;51462;51.422;5.514;2024-03-17T04:35:57;8.40;99.90
24226;DHT22;51462;51.422;5.514;2024-03-17T04:38:23;8.60;99.90
24226;DHT22;51462;51.422;5.514;2024-03-17T04:40:49;8.60;99.90
24226;DHT22;51462;51.422;5.514;2024-03-17T04:43:15;9.00;99.90
24226;DHT22;51462;51.422;5.514;2024-03-17T04:45:41;8.80;99.90
24226;DHT22;51462;51.422;5.514;2024-03-17T04:48:07;8.80;99.90
24226;DHT22;51462;51.422;5.514;2024-03-17T04:50:32;8.70;99.90
24226;DHT22;51462;51.422;5.514;2024-03-17T04:52:59;8.50;99.90
24226;DHT22;51462;51.422;5.514;2024-03-17T04:55:25;8.40;99.90
24226;DHT22;51462;51.422;5.514;2024-03-17T04:57:50;8.60;99.90
24226;DHT22;51462;51.422;5.514;2024-03-17T05:00:16;8.60;99.90
24226;DHT22;51462;51.422;5.514;2024-03-17T05:02:43;8.60;99.90
24226;DHT22;51462;51.422;5.514;2024-03-17T05:05:09;8.20;99.90
24226;DHT22;51462;51.422;5.514;2024-03-17T05:07:36;8.20;99.90
24226;DHT22;51462;51.422;5.514;2024-03-17T05:10:02;8.00;99.90
24226;DHT22;51462;51.422;5.514;2024-03-17T05:12:28;7.80;99.90
24226;DHT22;51462;51.422;5.514;2024-03-17T05:14:53;7.90;99.90
24226;DHT22;51462;51.422;5.514;2024-03-17T05:17:19;7.70;99.90
24226;DHT22;51462;51.422;5.514;2024-03-17T05:19:44;7.90;99.90
24226;DHT22;51462;51.422;5.514;2024-03-17T05:22:10;7.90;99.90
24226;DHT22;51462;51.422;5.514;2024-03-17T05:24:36;8.00;99.90
24226;DHT22;51462;51.422;5.514;2024-03-17T05:27:01;8.00;99.90
24226;DHT22;51462;51.422;5.514;2024-03-17T05:29:27;8.10;99.90
24226;DHT22;51462;51.422;5.514;2024-03-17T05:31:53;8.50;99.90
24226;DHT22;51462;51.422;5.514;2024-03-17T05:34:18;8.70;99.90
24226;DHT22;51462;51.422;5.514;2024-03-17T05:36:44;8.70;99.90
24226;DHT22;51462;51.422;5.514;2024-03-17T05:39:09;8.50;99.90
24226;DHT22;51462;51.422;5.514;2024-03-17T05:41:35;8.40;99.90
24226;DHT22;51462;51.422;5.514;2024-03-17T05:44:00;8.30;99.90
24226;DHT22;51462;51.422;5.514;2024-03-17T05:46:29;8.40;99.90
24226;DHT22;51462;51.422;5.514;2024-03-17T05:48:55;8.50;99.90
24226;DHT22;51462;51.422;5.514;2024-03-17T05:51:22;8.60;99.90
24226;DHT22;51462;51.422;5.514;2024-03-17T05:53:48;8.70;99.90
24226;DHT22;51462;51.422;5.514;2024-03-17T05:56:14;8.90;99.90
24226;DHT22;51462;51.422;5.514;2024-03-17T05:58:41;8.90;99.90
24226;DHT22;51462;51.422;5.514;2024-03-17T06:01:07;8.90;99.90
24226;DHT22;51462;51.422;5.514;2024-03-17T06:03:34;8.80;99.90
24226;DHT22;51462;51.422;5.514;2024-03-17T06:06:01;8.60;99.90
24226;DHT22;51462;51.422;5.514;2024-03-17T06:08:27;8.60;99.90
24226;DHT22;51462;51.422;5.514;2024-03-17T06:10:53;8.90;99.90
24226;DHT22;51462;51.422;5.514;2024-03-17T06:13:18;8.60;99.90
24226;DHT22;51462;51.422;5.514;2024-03-17T06:15:44;8.60;99.90
24226;DHT22;51462;51.422;5.514;2024-03-17T06:18:13;8.50;99.90
24226;DHT22;51462;51.422;5.514;2024-03-17T06:20:46;8.30;99.90
24226;DHT22;51462;51.422;5.514;2024-03-17T06:23:13;7.80;99.90
24226;DHT22;51462;51.422;5.514;2024-03-17T06:25:47;7.80;99.90
24226;DHT22;51462;51.422;5.514;2024-03-17T06:28:14;7.60;99.90
24226;DHT22;51462;51.422;5.514;2024-03-17T06:30:44;7.90;99.90
24226;DHT22;51462;51.422;5.514;2024-03-17T06:33:12;7.80;99.90
24226;DHT22;51462;51.422;5.514;2024-03-17T06:35:39;8.20;99.90
24226;DHT22;51462;51.422;5.514;2024-03-17T06:38:04;8.30;99.90
24226;DHT22;51462;51.422;5.514;2024-03-17T06:40:30;8.50;99.90
24226;DHT22;51462;51.422;5.514;2024-03-17T06:42:56;8.50;99.90
24226;DHT22;51462;51.422;5.514;2024-03-17T06:45:22;8.60;99.90
24226;DHT22;51462;51.422;5.514;2024-03-17T06:47:48;8.60;99.90
24226;DHT22;51462;51.422;5.514;2024-03-17T06:50:14;8.40;99.90
24226;DHT22;51462;51.422;5.514;2024-03-17T06:52:40;8.60;99.90
24226;DHT22;51462;51.422;5.514;2024-03-17T06:55:06;8.80;99.90
24226;DHT22;51462;51.422;5.514;2024-03-17T06:57:34;8.70;99.90
24226;DHT22;51462;51.422;5.514;2024-03-17T07:00:01;8.80;99.90
24226;DHT22;51462;51.422;5.514;2024-03-17T07:02:26;8.80;99.90
24226;DHT22;51462;51.422;5.514;2024-03-17T07:04:52;8.70;99.90
24226;DHT22;51462;51.422;5.514;2024-03-17T07:07:18;8.60;99.90
24226;DHT22;51462;51.422;5.514;2024-03-17T07:09:43;8.70;99.90
24226;DHT22;51462;51.422;5.514;2024-03-17T07:12:10;8.70;99.90
24226;DHT22;51462;51.422;5.514;2024-03-17T07:14:36;8.90;99.90
24226;DHT22;51462;51.422;5.514;2024-03-17T07:17:02;8.80;99.90
24226;DHT22;51462;51.422;5.514;2024-03-17T07:19:28;9.10;99.90
24226;DHT22;51462;51.422;5.514;2024-03-17T07:21:54;9.20;99.90
24226;DHT22;51462;51.422;5.514;2024-03-17T07:24:20;9.20;99.90
24226;DHT22;51462;51.422;5.514;2024-03-17T07:26:48;9.00;99.90
24226;DHT22;51462;51.422;5.514;2024-03-17T07:29:14;9.20;99.90
24226;DHT22;51462;51.422;5.514;2024-03-17T07:31:39;9.20;99.90
24226;DHT22;51462;51.422;5.514;2024-03-17T07:34:05;9.20;99.90
24226;DHT22;51462;51.422;5.514;2024-03-17T07:36:30;9.20;99.90
24226;DHT22;51462;51.422;5.514;2024-03-17T07:38:56;9.20;99.90
24226;DHT22;51462;51.422;5.514;2024-03-17T07:41:22;9.30;99.90
24226;DHT22;51462;51.422;5.514;2024-03-17T07:43:49;9.40;99.90
24226;DHT22;51462;51.422;5.514;2024-03-17T07:46:15;9.40;99.90
24226;DHT22;51462;51.422;5.514;2024-03-17T07:48:42;9.50;99.90
24226;DHT22;51462;51.422;5.514;2024-03-17T07:51:13;9.50;99.90
24226;DHT22;51462;51.422;5.514;2024-03-17T07:53:40;9.40;99.90
24226;DHT22;51462;51.422;5.514;2024-03-17T07:56:14;9.30;99.90
24226;DHT22;51462;51.422;5.514;2024-03-17T07:58:44;9.30;99.90
24226;DHT22;51462;51.422;5.514;2024-03-17T08:01:14;9.40;99.90
24226;DHT22;51462;51.422;5.514;2024-03-17T08:03:42;9.30;99.90
24226;DHT22;51462;51.422;5.514;2024-03-17T08:06:09;9.20;99.90
24226;DHT22;51462;51.422;5.514;2024-03-17T08:08:36;9.30;99.90
24226;DHT22;51462;51.422;5.514;2024-03-17T08:11:02;9.30;99.90
24226;DHT22;51462;51.422;5.514;2024-03-17T08:13:29;9.50;99.90
24226;DHT22;51462;51.422;5.514;2024-03-17T08:16:01;9.50;99.90
24226;DHT22;51462;51.422;5.514;2024-03-17T08:18:26;9.50;99.90
24226;DHT22;51462;51.422;5.514;2024-03-17T08:20:53;9.50;99.90
24226;DHT22;51462;51.422;5.514;2024-03-17T08:23:22;9.50;99.90
24226;DHT22;51462;51.422;5.514;2024-03-17T08:25:57;9.50;99.90
24226;DHT22;51462;51.422;5.514;2024-03-17T08:28:24;9.50;99.90
24226;DHT22;51462;51.422;5.514;2024-03-17T08:31:01;9.50;99.90
24226;DHT22;51462;51.422;5.514;2024-03-17T08:33:27;9.60;99.90
24226;DHT22;51462;51.422;5.514;2024-03-17T08:35:57;9.70;99.90
24226;DHT22;51462;51.422;5.514;2024-03-17T08:38:23;9.60;99.90
24226;DHT22;51462;51.422;5.514;2024-03-17T08:40:50;9.50;99.90
24226;DHT22;51462;51.422;5.514;2024-03-17T08:43:16;9.50;99.90
24226;DHT22;51462;51.422;5.514;2024-03-17T08:45:42;9.70;99.90
24226;DHT22;51462;51.422;5.514;2024-03-17T08:48:08;9.70;99.90
24226;DHT22;51462;51.422;5.514;2024-03-17T08:50:36;9.70;99.90
24226;DHT22;51462;51.422;5.514;2024-03-17T08:53:02;9.60;99.90
24226;DHT22;51462;51.422;5.514;2024-03-17T08:55:27;9.60;99.90
24226;DHT22;51462;51.422;5.514;2024-03-17T08:57:53;9.60;99.90
24226;DHT22;51462;51.422;5.514;2024-03-17T09:00:18;9.70;99.90
24226;DHT22;51462;51.422;5.514;2024-03-17T09:02:44;9.70;99.90
24226;DHT22;51462;51.422;5.514;2024-03-17T09:05:09;9.80;99.90
24226;DHT22;51462;51.422;5.514;2024-03-17T09:07:37;9.80;99.90
24226;DHT22;51462;51.422;5.514;2024-03-17T09:10:03;9.90;99.90
24226;DHT22;51462;51.422;5.514;2024-03-17T09:12:29;9.90;99.90
24226;DHT22;51462;51.422;5.514;2024-03-17T09:14:54;9.90;99.90
24226;DHT22;51462;51.422;5.514;2024-03-17T09:17:20;9.80;99.90
24226;DHT22;51462;51.422;5.514;2024-03-17T09:19:46;9.90;99.90
24226;DHT22;51462;51.422;5.514;2024-03-17T09:22:13;9.90;99.90
24226;DHT22;51462;51.422;5.514;2024-03-17T09:24:38;9.90;99.90
24226;DHT22;51462;51.422;5.514;2024-03-17T09:27:04;10.00;99.90
24226;DHT22;51462;51.422;5.514;2024-03-17T09:29:30;10.10;99.90
24226;DHT22;51462;51.422;5.514;2024-03-17T09:31:56;10.10;99.90
24226;DHT22;51462;51.422;5.514;2024-03-17T09:34:21;10.10;99.90
24226;DHT22;51462;51.422;5.514;2024-03-17T09:36:47;10.20;99.90
24226;DHT22;51462;51.422;5.514;2024-03-17T09:39:13;10.20;99.90
24226;DHT22;51462;51.422;5.514;2024-03-17T09:41:40;10.30;99.90
24226;DHT22;51462;51.422;5.514;2024-03-17T09:44:06;10.30;99.90
24226;DHT22;51462;51.422;5.514;2024-03-17T09:46:35;10.30;99.90
24226;DHT22;51462;51.422;5.514;2024-03-17T09:49:01;10.30;99.90
24226;DHT22;51462;51.422;5.514;2024-03-17T09:51:26;10.30;99.90
24226;DHT22;51462;51.422;5.514;2024-03-17T09:53:52;10.40;99.90
24226;DHT22;51462;51.422;5.514;2024-03-17T09:56:19;10.40;99.90
24226;DHT22;51462;51.422;5.514;2024-03-17T09:58:49;10.50;99.90
24226;DHT22;51462;51.422;5.514;2024-03-17T10:01:15;10.50;99.90
24226;DHT22;51462;51.422;5.514;2024-03-17T10:03:53;10.50;99.90
24226;DHT22;51462;51.422;5.514;2024-03-17T10:06:29;10.60;99.90
24226;DHT22;51462;51.422;5.514;2024-03-17T10:08:59;10.60;99.90
24226;DHT22;51462;51.422;5.514;2024-03-17T10:11:35;10.60;99.90
24226;DHT22;51462;51.422;5.514;2024-03-17T10:14:07;10.70;99.90
24226;DHT22;51462;51.422;5.514;2024-03-17T10:16:35;10.70;99.90
24226;DHT22;51462;51.422;5.514;2024-03-17T10:19:09;10.70;99.90
24226;DHT22;51462;51.422;5.514;2024-03-17T10:21:36;10.70;99.90
24226;DHT22;51462;51.422;5.514;2024-03-17T10:24:07;10.80;99.90
24226;DHT22;51462;51.422;5.514;2024-03-17T10:26:37;10.80;99.90
24226;DHT22;51462;51.422;5.514;2024-03-17T10:29:05;10.80;99.90
24226;DHT22;51462;51.422;5.514;2024-03-17T10:31:31;10.80;99.90
24226;DHT22;51462;51.422;5.514;2024-03-17T10:34:03;10.80;99.90
24226;DHT22;51462;51.422;5.514;2024-03-17T10:36:28;10.80;99.90
24226;DHT22;51462;51.422;5.514;2024-03-17T10:38:54;10.90;99.90
24226;DHT22;51462;51.422;5.514;2024-03-17T10:41:21;10.90;99.90
24226;DHT22;51462;51.422;5.514;2024-03-17T10:43:48;10.90;99.90
24226;DHT22;51462;51.422;5.514;2024-03-17T10:46:15;10.90;99.90
24226;DHT22;51462;51.422;5.514;2024-03-17T10:48:41;11.00;99.90
24226;DHT22;51462;51.422;5.514;2024-03-17T10:51:17;11.00;99.90
24226;DHT22;51462;51.422;5.514;2024-03-17T10:53:45;11.20;99.90
24226;DHT22;51462;51.422;5.514;2024-03-17T10:56:13;11.20;99.90
24226;DHT22;51462;51.422;5.514;2024-03-17T10:58:44;11.20;99.90
24226;DHT22;51462;51.422;5.514;2024-03-17T11:01:16;11.20;99.90
24226;DHT22;51462;51.422;5.514;2024-03-17T11:03:46;11.20;99.90
24226;DHT22;51462;51.422;5.514;2024-03-17T11:06:12;11.20;99.90
24226;DHT22;51462;51.422;5.514;2024-03-17T11:08:39;11.30;99.90
24226;DHT22;51462;51.422;5.514;2024-03-17T11:11:07;11.30;99.90
24226;DHT22;51462;51.422;5.514;2024-03-17T11:13:34;11.40;99.90
24226;DHT22;51462;51.422;5.514;2024-03-17T11:16:02;11.40;99.90
24226;DHT22;51462;51.422;5.514;2024-03-17T11:18:39;11.50;99.90
24226;DHT22;51462;51.422;5.514;2024-03-17T11:21:07;11.50;99.90
24226;DHT22;51462;51.422;5.514;2024-03-17T11:23:35;11.50;99.90
24226;DHT22;51462;51.422;5.514;2024-03-17T11:26:02;11.50;99.90
24226;DHT22;51462;51.422;5.514;2024-03-17T11:31:32;11.70;99.90
24226;DHT22;51462;51.422;5.514;2024-03-17T11:33:58;11.80;99.90
24226;DHT22;51462;51.422;5.514;2024-03-17T11:36:30;11.80;99.90
24226;DHT22;51462;51.422;5.514;2024-03-17T11:39:08;11.90;99.90
24226;DHT22;51462;51.422;5.514;2024-03-17T11:42:06;11.70;99.90
24226;DHT22;51462;51.422;5.514;2024-03-17T11:44:37;11.90;99.90
24226;DHT22;51462;51.422;5.514;2024-03-17T11:47:04;11.90;99.90
24226;DHT22;51462;51.422;5.514;2024-03-17T11:49:34;11.90;99.90
24226;DHT22;51462;51.422;5.514;2024-03-17T11:52:04;12.00;99.90
24226;DHT22;51462;51.422;5.514;2024-03-17T11:54:32;12.00;99.90
24226;DHT22;51462;51.422;5.514;2024-03-17T11:57:24;12.00;99.90
24226;DHT22;51462;51.422;5.514;2024-03-17T11:59:52;11.90;99.90
24226;DHT22;51462;51.422;5.514;2024-03-17T12:02:23;11.80;99.90
24226;DHT22;51462;51.422;5.514;2024-03-17T12:04:56;12.00;99.90
24226;DHT22;51462;51.422;5.514;2024-03-17T12:07:22;12.00;99.90
24226;DHT22;51462;51.422;5.514;2024-03-17T12:09:49;11.90;99.90
24226;DHT22;51462;51.422;5.514;2024-03-17T12:12:23;11.90;99.90
24226;DHT22;51462;51.422;5.514;2024-03-17T12:14:50;12.00;99.90
24226;DHT22;51462;51.422;5.514;2024-03-17T12:17:24;12.10;99.90
24226;DHT22;51462;51.422;5.514;2024-03-17T12:19:50;12.10;99.90
24226;DHT22;51462;51.422;5.514;2024-03-17T12:22:20;12.10;99.90
24226;DHT22;51462;51.422;5.514;2024-03-17T12:24:51;12.10;99.90
24226;DHT22;51462;51.422;5.514;2024-03-17T12:27:20;12.10;99.90
24226;DHT22;51462;51.422;5.514;2024-03-17T12:29:48;12.20;99.90
24226;DHT22;51462;51.422;5.514;2024-03-17T12:32:21;12.20;99.90
24226;DHT22;51462;51.422;5.514;2024-03-17T12:34:52;12.30;99.90
24226;DHT22;51462;51.422;5.514;2024-03-17T12:37:23;12.20;99.90
24226;DHT22;51462;51.422;5.514;2024-03-17T12:39:50;12.20;99.90
24226;DHT22;51462;51.422;5.514;2024-03-17T12:42:25;12.20;99.90
24226;DHT22;51462;51.422;5.514;2024-03-17T12:44:53;12.30;99.90
24226;DHT22;51462;51.422;5.514;2024-03-17T12:47:23;12.30;99.90
24226;DHT22;51462;51.422;5.514;2024-03-17T12:49:53;12.20;99.90
24226;DHT22;51462;51.422;5.514;2024-03-17T12:52:27;12.20;99.90
24226;DHT22;51462;51.422;5.514;2024-03-17T12:58:08;12.20;99.90
24226;DHT22;51462;51.422;5.514;2024-03-17T13:01:03;12.20;99.90
24226;DHT22;51462;51.422;5.514;2024-03-17T13:03:33;12.30;99.90
24226;DHT22;51462;51.422;5.514;2024-03-17T13:06:00;12.30;99.90
24226;DHT22;51462;51.422;5.514;2024-03-17T13:08:28;12.30;99.90
24226;DHT22;51462;51.422;5.514;2024-03-17T13:10:53;12.40;99.90
24226;DHT22;51462;51.422;5.514;2024-03-17T13:13:19;12.50;99.90
24226;DHT22;51462;51.422;5.514;2024-03-17T13:15:45;12.50;99.90
24226;DHT22;51462;51.422;5.514;2024-03-17T13:18:16;12.50;99.90
24226;DHT22;51462;51.422;5.514;2024-03-17T13:20:43;12.60;99.90
24226;DHT22;51462;51.422;5.514;2024-03-17T13:23:10;12.60;99.90
24226;DHT22;51462;51.422;5.514;2024-03-17T13:25:36;12.40;99.90
24226;DHT22;51462;51.422;5.514;2024-03-17T13:28:03;12.50;99.90
24226;DHT22;51462;51.422;5.514;2024-03-17T13:30:29;12.50;99.90
24226;DHT22;51462;51.422;5.514;2024-03-17T13:32:56;12.40;99.90
24226;DHT22;51462;51.422;5.514;2024-03-17T13:35:26;12.60;99.90
24226;DHT22;51462;51.422;5.514;2024-03-17T13:37:52;13.10;99.90
24226;DHT22;51462;51.422;5.514;2024-03-17T13:40:20;13.30;99.90
24226;DHT22;51462;51.422;5.514;2024-03-17T13:42:46;13.40;99.90
24226;DHT22;51462;51.422;5.514;2024-03-17T13:45:13;13.30;99.90
24226;DHT22;51462;51.422;5.514;2024-03-17T13:47:39;13.00;99.90
24226;DHT22;51462;51.422;5.514;2024-03-17T13:50:05;12.80;99.90
24226;DHT22;51462;51.422;5.514;2024-03-17T13:52:42;12.90;99.90
24226;DHT22;51462;51.422;5.514;2024-03-17T13:55:15;13.30;99.90
24226;DHT22;51462;51.422;5.514;2024-03-17T13:57:45;13.60;99.90
24226;DHT22;51462;51.422;5.514;2024-03-17T14:00:12;13.30;99.90
24226;DHT22;51462;51.422;5.514;2024-03-17T14:02:48;13.40;99.90
24226;DHT22;51462;51.422;5.514;2024-03-17T14:05:15;13.70;99.90
24226;DHT22;51462;51.422;5.514;2024-03-17T14:07:41;14.00;99.90
24226;DHT22;51462;51.422;5.514;2024-03-17T14:10:08;13.80;99.90
24226;DHT22;51462;51.422;5.514;2024-03-17T14:12:35;13.80;99.90
24226;DHT22;51462;51.422;5.514;2024-03-17T14:15:01;13.90;99.90
24226;DHT22;51462;51.422;5.514;2024-03-17T14:17:26;14.10;99.90
24226;DHT22;51462;51.422;5.514;2024-03-17T14:19:52;13.70;99.90
24226;DHT22;51462;51.422;5.514;2024-03-17T14:22:18;13.60;99.90
24226;DHT22;51462;51.422;5.514;2024-03-17T14:24:44;13.60;99.90
24226;DHT22;51462;51.422;5.514;2024-03-17T14:27:12;13.40;99.90
24226;DHT22;51462;51.422;5.514;2024-03-17T14:29:37;13.50;99.90
24226;DHT22;51462;51.422;5.514;2024-03-17T14:32:03;13.90;99.90
24226;DHT22;51462;51.422;5.514;2024-03-17T14:34:29;13.60;99.90
24226;DHT22;51462;51.422;5.514;2024-03-17T14:37:00;13.40;99.90
24226;DHT22;51462;51.422;5.514;2024-03-17T14:39:29;13.70;99.90
24226;DHT22;51462;51.422;5.514;2024-03-17T14:41:55;13.80;99.90
24226;DHT22;51462;51.422;5.514;2024-03-17T14:44:21;13.70;99.90
24226;DHT22;51462;51.422;5.514;2024-03-17T14:46:47;13.60;99.90
24226;DHT22;51462;51.422;5.514;2024-03-17T14:49:16;14.00;99.90
24226;DHT22;51462;51.422;5.514;2024-03-17T14:51:42;13.70;99.90
24226;DHT22;51462;51.422;5.514;2024-03-17T14:54:08;13.70;99.90
24226;DHT22;51462;51.422;5.514;2024-03-17T14:56:35;13.60;99.90
24226;DHT22;51462;51.422;5.514;2024-03-17T14:59:00;13.60;99.90
24226;DHT22;51462;51.422;5.514;2024-03-17T15:01:26;13.60;99.90
24226;DHT22;51462;51.422;5.514;2024-03-17T15:03:55;13.60;99.90
24226;DHT22;51462;51.422;5.514;2024-03-17T15:06:21;13.60;99.90
24226;DHT22;51462;51.422;5.514;2024-03-17T15:08:46;13.70;99.90
24226;DHT22;51462;51.422;5.514;2024-03-17T15:11:12;13.60;99.90
24226;DHT22;51462;51.422;5.514;2024-03-17T15:13:37;13.70;99.90
24226;DHT22;51462;51.422;5.514;2024-03-17T15:16:03;13.80;99.90
24226;DHT22;51462;51.422;5.514;2024-03-17T15:18:31;13.90;99.90
24226;DHT22;51462;51.422;5.514;2024-03-17T15:20:56;13.70;99.90
24226;DHT22;51462;51.422;5.514;2024-03-17T15:23:22;13.70;99.90
24226;DHT22;51462;51.422;5.514;2024-03-17T15:26:02;13.80;99.90
24226;DHT22;51462;51.422;5.514;2024-03-17T15:28:40;13.80;99.90
24226;DHT22;51462;51.422;5.514;2024-03-17T15:31:06;13.80;99.90
24226;DHT22;51462;51.422;5.514;2024-03-17T15:33:35;13.90;99.90
24226;DHT22;51462;51.422;5.514;2024-03-17T15:36:03;13.80;99.90
24226;DHT22;51462;51.422;5.514;2024-03-17T15:38:33;13.80;99.90
24226;DHT22;51462;51.422;5.514;2024-03-17T15:41:05;13.80;99.90
24226;DHT22;51462;51.422;5.514;2024-03-17T15:43:38;13.80;99.90
24226;DHT22;51462;51.422;5.514;2024-03-17T15:48:33;13.70;99.90
24226;DHT22;51462;51.422;5.514;2024-03-17T15:50:59;13.70;99.90